New Waverly, Texas
Current Conditions -  °F | °C
As of 7:53 AM on Monday 22 Dec 2014 (Local Time) from KCXO Reporting Station
Haze Haze  
Wind Chill: 59°   Ceiling: 600
Heat Index: 59°   Visibility: 5mi
Dew Point: 58°   Wind: 8mph
Humidity: 96%   Direction: 190°S
Pressure: 29.75"   Gusts: NA
Location:  30.54°N, 95.48°W
Report Text: KCXO 221353Z 19007KT 5SM BR BKN006 OVC015 15/14 A2975 RMK AO2 CIG 004V009 SLP072 T01500144
Loading
Personal Weather Stations






























Interactive Weather Map New forecast layout! Learn more

10-Day Weather Forecast

Advertisements
Track Severe Weather on mobile